createdAt,value
2022-12-05T00:01:27.546Z,51.13
2022-12-05T00:03:56.771Z,41.27
2022-12-05T00:06:24.504Z,42.50
2022-12-05T00:08:51.883Z,39.00
2022-12-05T00:11:21.020Z,41.23
2022-12-05T00:13:48.604Z,41.50
2022-12-05T00:16:18.223Z,38.07
2022-12-05T00:18:45.358Z,42.40
2022-12-05T00:21:14.462Z,41.90
2022-12-05T00:23:41.296Z,38.17
2022-12-05T00:26:08.436Z,43.07
2022-12-05T00:28:35.932Z,38.33
2022-12-05T00:31:04.179Z,36.27
2022-12-05T00:33:30.854Z,43.33
2022-12-05T00:36:06.153Z,35.30
2022-12-05T00:38:32.808Z,39.03
2022-12-05T00:41:07.891Z,33.20
2022-12-05T00:43:34.544Z,34.97
2022-12-05T00:46:03.102Z,39.00
2022-12-05T00:48:30.388Z,35.07
2022-12-05T00:51:05.961Z,37.63
2022-12-05T00:53:32.989Z,38.97
2022-12-05T00:56:08.592Z,35.57
2022-12-05T00:58:35.499Z,35.50
2022-12-05T01:01:11.864Z,41.33
2022-12-05T01:03:39.048Z,44.23
2022-12-05T01:06:06.069Z,41.83
2022-12-05T01:08:34.277Z,37.83
2022-12-05T01:11:01.613Z,40.77
2022-12-05T01:13:29.334Z,43.70
2022-12-05T01:15:56.244Z,43.33
2022-12-05T01:18:24.406Z,43.00
2022-12-05T01:20:51.639Z,41.83
2022-12-05T01:23:18.320Z,39.70
2022-12-05T01:25:47.510Z,46.13
2022-12-05T01:28:15.628Z,42.87
2022-12-05T01:30:44.800Z,41.33
2022-12-05T01:33:12.005Z,39.13
2022-12-05T01:35:40.137Z,38.73
2022-12-05T01:38:07.605Z,38.97
2022-12-05T01:40:38.085Z,44.23
2022-12-05T01:43:13.492Z,41.40
2022-12-05T01:45:43.003Z,37.43
2022-12-05T01:48:21.547Z,41.43
2022-12-05T01:50:49.769Z,35.50
2022-12-05T01:53:16.976Z,37.70
2022-12-05T01:55:44.990Z,35.43
2022-12-05T01:58:11.620Z,36.83
2022-12-05T02:00:39.594Z,40.27
2022-12-05T02:03:13.968Z,32.33
2022-12-05T02:05:41.101Z,32.27
2022-12-05T02:08:10.091Z,31.23
2022-12-05T02:10:48.369Z,35.23
2022-12-05T02:13:33.101Z,35.33
2022-12-05T02:16:14.240Z,37.37
2022-12-05T02:19:03.617Z,35.83
2022-12-05T02:21:48.974Z,33.47
2022-12-05T02:24:15.488Z,32.00
2022-12-05T02:26:59.504Z,38.03
2022-12-05T02:29:56.474Z,36.93
2022-12-05T02:32:47.489Z,33.40
2022-12-05T02:35:18.596Z,38.43
2022-12-05T02:38:04.812Z,37.23
2022-12-05T02:40:48.972Z,34.53
2022-12-05T02:43:25.176Z,32.33
2022-12-05T02:45:56.802Z,33.80
2022-12-05T02:48:26.394Z,36.97
2022-12-05T02:50:56.207Z,33.27
2022-12-05T02:53:25.189Z,36.43
2022-12-05T02:55:52.630Z,33.53
2022-12-05T02:58:27.887Z,35.23
2022-12-05T03:00:58.130Z,32.87
2022-12-05T03:03:25.517Z,33.20
2022-12-05T03:06:11.773Z,37.57
2022-12-05T03:08:57.164Z,35.90
2022-12-05T03:11:24.046Z,30.93
2022-12-05T03:13:58.212Z,35.53
2022-12-05T03:16:47.331Z,34.23
2022-12-05T03:19:36.922Z,33.80
2022-12-05T03:22:09.242Z,32.73
2022-12-05T03:24:39.144Z,37.90
2022-12-05T03:27:11.569Z,35.90
2022-12-05T03:30:01.884Z,38.27
2022-12-05T03:32:44.983Z,39.23
2022-12-05T03:35:36.963Z,37.50
2022-12-05T03:38:09.516Z,39.27
2022-12-05T03:40:54.356Z,36.13
2022-12-05T03:43:54.380Z,41.33
2022-12-05T03:46:24.532Z,65.87
2022-12-05T03:48:51.092Z,48.03
2022-12-05T03:51:21.900Z,43.40
2022-12-05T03:53:54.793Z,42.73
2022-12-05T03:56:27.813Z,42.80
2022-12-05T03:59:08.788Z,47.43
2022-12-05T04:01:36.889Z,41.90
2022-12-05T04:04:13.775Z,46.67
2022-12-05T04:06:43.499Z,43.73
2022-12-05T04:09:23.142Z,48.07
2022-12-05T04:12:00.560Z,46.17
2022-12-05T04:14:56.134Z,39.80
2022-12-05T04:17:58.117Z,43.33
2022-12-05T04:20:48.046Z,45.87
2022-12-05T04:23:15.125Z,38.20
2022-12-05T04:25:53.852Z,44.57
2022-12-05T04:28:39.297Z,47.67
2022-12-05T04:31:25.655Z,45.93
2022-12-05T04:34:00.277Z,41.70
2022-12-05T04:36:42.109Z,50.57
2022-12-05T04:39:18.060Z,44.30
2022-12-05T04:42:00.051Z,40.23
2022-12-05T04:44:34.093Z,38.53
2022-12-05T04:47:03.819Z,33.70
2022-12-05T04:49:32.912Z,36.73
2022-12-05T04:52:04.441Z,35.00
2022-12-05T04:54:36.801Z,37.70
2022-12-05T04:57:24.254Z,39.50
2022-12-05T04:59:50.850Z,35.37
2022-12-05T05:02:30.984Z,37.30
2022-12-05T05:05:00.207Z,39.50
2022-12-05T05:07:26.879Z,42.80
2022-12-05T05:09:53.461Z,36.70
2022-12-05T05:12:20.008Z,38.77
2022-12-05T05:14:46.577Z,35.33
2022-12-05T05:17:13.165Z,36.07
2022-12-05T05:19:39.783Z,36.60
2022-12-05T05:22:06.606Z,37.73
2022-12-05T05:24:33.350Z,38.27
2022-12-05T05:26:59.921Z,38.10
2022-12-05T05:29:26.808Z,40.80
2022-12-05T05:31:53.407Z,39.13
2022-12-05T05:34:19.977Z,36.83
2022-12-05T05:36:51.555Z,37.77
2022-12-05T05:39:18.088Z,40.40
2022-12-05T05:41:44.790Z,40.40
2022-12-05T05:44:11.369Z,41.10
2022-12-05T05:46:38.513Z,39.87
2022-12-05T05:49:05.631Z,37.70
2022-12-05T05:51:32.597Z,42.63
2022-12-05T05:53:59.828Z,41.93
2022-12-05T05:56:27.548Z,39.00
2022-12-05T05:59:03.414Z,41.30
2022-12-05T06:01:30.788Z,45.53
2022-12-05T06:03:58.391Z,48.23
2022-12-05T06:06:25.367Z,38.73
2022-12-05T06:08:52.006Z,48.57
2022-12-05T06:11:25.924Z,47.53
2022-12-05T06:14:00.898Z,58.37
2022-12-05T06:16:28.356Z,54.33
2022-12-05T06:18:54.990Z,56.73
2022-12-05T06:21:22.712Z,68.60
2022-12-05T06:23:49.489Z,50.50
2022-12-05T06:26:18.852Z,48.20
2022-12-05T06:28:46.036Z,51.73
2022-12-05T06:31:18.257Z,44.90
2022-12-05T06:33:44.862Z,42.13
2022-12-05T06:36:17.056Z,47.40
2022-12-05T06:38:43.804Z,41.80
2022-12-05T06:41:13.737Z,41.07
2022-12-05T06:43:40.542Z,41.87
2022-12-05T06:46:08.967Z,42.60
2022-12-05T06:48:35.775Z,50.70
2022-12-05T06:51:02.436Z,44.30
2022-12-05T06:53:29.236Z,45.03
2022-12-05T06:56:00.813Z,44.40
2022-12-05T06:58:27.808Z,49.50
2022-12-05T07:01:13.799Z,39.90
2022-12-05T07:03:40.884Z,44.07
2022-12-05T07:06:08.510Z,43.47
2022-12-05T07:08:35.643Z,46.43
2022-12-05T07:11:03.424Z,46.67
2022-12-05T07:13:30.159Z,51.20
2022-12-05T07:15:58.894Z,44.93
2022-12-05T07:18:26.299Z,44.67
2022-12-05T07:21:11.749Z,42.27
2022-12-05T07:23:39.567Z,48.23
2022-12-05T07:26:08.140Z,43.87
2022-12-05T07:28:36.352Z,41.67
2022-12-05T07:31:06.458Z,44.17
2022-12-05T07:33:33.502Z,51.03
2022-12-05T07:36:05.748Z,55.30
2022-12-05T07:38:32.544Z,44.93
2022-12-05T07:40:59.149Z,51.37
2022-12-05T07:43:25.981Z,45.17
2022-12-05T07:45:52.622Z,49.37
2022-12-05T07:48:19.287Z,48.37
2022-12-05T07:50:46.328Z,43.73
2022-12-05T07:53:13.373Z,52.67
2022-12-05T07:55:39.910Z,43.87
2022-12-05T07:58:06.536Z,51.30
2022-12-05T08:00:33.646Z,48.53
2022-12-05T08:03:03.054Z,56.20
2022-12-05T08:05:29.924Z,59.07
2022-12-05T08:07:56.549Z,53.13
2022-12-05T08:10:23.119Z,51.23
2022-12-05T08:12:49.686Z,57.80
2022-12-05T08:15:16.549Z,52.43
2022-12-05T08:17:43.359Z,65.13
2022-12-05T08:20:10.375Z,53.57
2022-12-05T08:22:36.944Z,61.97
2022-12-05T08:25:03.614Z,62.53
2022-12-05T08:27:30.428Z,59.97
2022-12-05T08:29:57.399Z,52.43
2022-12-05T08:32:24.282Z,46.10
2022-12-05T08:34:51.102Z,53.40
2022-12-05T08:37:17.671Z,55.47
2022-12-05T08:39:44.218Z,48.97
2022-12-05T08:42:10.904Z,54.80
2022-12-05T08:44:37.465Z,57.10
2022-12-05T08:47:04.038Z,52.50
2022-12-05T08:49:30.659Z,58.10
2022-12-05T08:51:57.264Z,61.00
2022-12-05T08:54:23.869Z,53.83
2022-12-05T08:56:51.934Z,50.93
2022-12-05T08:59:19.152Z,57.63
2022-12-05T09:01:45.871Z,53.97
2022-12-05T09:04:13.041Z,53.17
2022-12-05T09:06:40.165Z,50.13
2022-12-05T09:09:11.276Z,49.57
2022-12-05T09:11:45.972Z,56.77
2022-12-05T09:14:13.484Z,54.40
2022-12-05T09:16:40.442Z,53.93
2022-12-05T09:19:14.276Z,51.20
2022-12-05T09:21:42.947Z,50.40
2022-12-05T09:24:11.648Z,49.97
2022-12-05T09:26:38.977Z,42.27
2022-12-05T09:29:05.538Z,45.77
2022-12-05T09:31:32.234Z,43.60
2022-12-05T09:33:59.244Z,50.97
2022-12-05T09:36:29.040Z,47.63
2022-12-05T09:38:59.328Z,45.73
2022-12-05T09:41:47.445Z,43.07
2022-12-05T09:44:52.683Z,40.60
2022-12-05T09:47:24.919Z,43.07
2022-12-05T09:49:58.727Z,46.43
2022-12-05T09:52:38.703Z,42.03
2022-12-05T09:55:16.282Z,42.50
2022-12-05T09:57:49.832Z,42.03
2022-12-05T10:00:17.129Z,42.90
2022-12-05T10:03:15.729Z,43.27
2022-12-05T10:06:01.461Z,45.00
2022-12-05T10:08:55.181Z,40.10
2022-12-05T10:11:31.586Z,41.47
2022-12-05T10:14:09.684Z,44.10
2022-12-05T10:16:42.608Z,37.93
2022-12-05T10:19:23.947Z,41.87
2022-12-05T10:22:09.277Z,40.47
2022-12-05T10:24:41.318Z,45.93
2022-12-05T10:27:13.570Z,45.27
2022-12-05T10:30:25.342Z,47.60
2022-12-05T10:33:04.971Z,41.33
2022-12-05T10:35:44.364Z,48.57
2022-12-05T10:38:23.788Z,46.87
2022-12-05T10:40:54.643Z,50.20
2022-12-05T10:43:27.916Z,43.60
2022-12-05T10:45:55.481Z,49.50
2022-12-05T10:48:23.649Z,48.60
2022-12-05T10:50:52.877Z,44.20
2022-12-05T10:53:28.555Z,46.30
2022-12-05T10:56:28.822Z,44.20
2022-12-05T10:58:58.190Z,40.03
2022-12-05T11:01:27.169Z,37.80
2022-12-05T11:03:59.603Z,38.23
2022-12-05T11:06:31.794Z,41.27
2022-12-05T11:09:06.018Z,40.03
2022-12-05T11:11:33.837Z,40.33
2022-12-05T11:14:06.299Z,36.57
2022-12-05T11:16:36.229Z,34.50
2022-12-05T11:19:26.404Z,31.57
2022-12-05T11:21:53.497Z,34.43
2022-12-05T11:24:23.214Z,33.53
2022-12-05T11:26:50.595Z,35.17
2022-12-05T11:29:38.263Z,32.37
2022-12-05T11:32:17.045Z,35.13
2022-12-05T11:34:56.728Z,37.17
2022-12-05T11:37:49.311Z,37.93
2022-12-05T11:40:30.848Z,36.90
2022-12-05T11:43:17.270Z,34.43
2022-12-05T11:46:02.713Z,33.83
2022-12-05T11:48:52.352Z,30.30
2022-12-05T11:51:30.823Z,31.10
2022-12-05T11:54:00.132Z,30.00
2022-12-05T11:56:32.580Z,29.17
2022-12-05T11:59:28.121Z,29.73
2022-12-05T12:02:29.562Z,27.97
2022-12-05T12:04:59.625Z,27.27
2022-12-05T12:07:29.507Z,26.10
2022-12-05T12:10:10.217Z,27.17
2022-12-05T12:12:59.705Z,26.97
2022-12-05T12:15:50.731Z,27.37
2022-12-05T12:18:47.017Z,27.13
2022-12-05T12:21:44.019Z,31.47
2022-12-05T12:24:10.579Z,21.60
2022-12-05T12:26:55.931Z,22.30
2022-12-05T12:29:55.328Z,23.90
2022-12-05T12:32:57.188Z,19.67
2022-12-05T12:35:32.189Z,20.80
2022-12-05T12:38:23.917Z,22.73
2022-12-05T12:40:58.325Z,19.37
2022-12-05T12:43:53.747Z,16.93
2022-12-05T12:46:48.813Z,19.20
2022-12-05T12:49:54.526Z,21.10
2022-12-05T12:52:24.160Z,20.13
2022-12-05T12:55:19.135Z,21.80
2022-12-05T12:58:12.843Z,19.97
2022-12-05T13:01:11.816Z,21.07
2022-12-05T13:03:51.345Z,19.23
2022-12-05T13:06:28.852Z,21.10
2022-12-05T13:09:00.345Z,21.70
2022-12-05T13:11:34.354Z,19.17
2022-12-05T13:14:01.991Z,21.83
2022-12-05T13:16:34.122Z,19.07
2022-12-05T13:19:02.297Z,20.70
2022-12-05T13:21:29.717Z,19.37
2022-12-05T13:24:03.561Z,18.83
2022-12-05T13:26:32.345Z,21.23
2022-12-05T13:29:04.434Z,20.30
2022-12-05T13:31:43.387Z,23.63
2022-12-05T13:34:35.148Z,20.73
2022-12-05T13:37:30.309Z,21.80
2022-12-05T13:40:16.729Z,19.33
2022-12-05T13:42:44.016Z,19.77
2022-12-05T13:45:17.235Z,20.97
2022-12-05T13:47:59.192Z,21.10
2022-12-05T13:50:25.856Z,18.77
2022-12-05T13:52:56.920Z,22.67
2022-12-05T13:55:57.321Z,21.07
2022-12-05T13:58:23.906Z,21.63
2022-12-05T14:00:52.097Z,23.97
2022-12-05T14:03:21.753Z,24.70
2022-12-05T14:05:53.641Z,24.43
2022-12-05T14:08:32.325Z,21.93
2022-12-05T14:10:58.837Z,22.33
2022-12-05T14:13:26.769Z,27.97
2022-12-05T14:15:54.728Z,23.37
2022-12-05T14:18:35.183Z,20.77
2022-12-05T14:21:16.577Z,22.53
2022-12-05T14:24:07.572Z,19.63
2022-12-05T14:26:53.075Z,15.97
2022-12-05T14:29:39.793Z,17.50
2022-12-05T14:32:12.194Z,17.80
2022-12-05T14:35:01.212Z,15.70
2022-12-05T14:37:36.527Z,16.87
2022-12-05T14:40:16.056Z,16.70
2022-12-05T14:42:52.021Z,17.40
2022-12-05T14:45:41.634Z,16.77
2022-12-05T14:48:14.298Z,18.10
2022-12-05T14:50:44.247Z,18.70
2022-12-05T14:53:15.434Z,18.27
2022-12-05T14:55:45.990Z,19.00
2022-12-05T14:58:56.901Z,18.90
2022-12-05T15:01:28.560Z,17.40
2022-12-05T15:04:13.781Z,19.50
2022-12-05T15:07:00.752Z,19.77
2022-12-05T15:09:54.596Z,17.07
2022-12-05T15:12:31.572Z,16.60
2022-12-05T15:15:30.532Z,19.33
2022-12-05T15:18:02.367Z,19.50
2022-12-05T15:20:46.294Z,18.37
2022-12-05T15:23:37.831Z,19.97
2022-12-05T15:29:32.826Z,22.40
2022-12-05T15:32:24.295Z,21.03
2022-12-05T15:35:05.281Z,21.03
2022-12-05T15:37:55.114Z,20.97
2022-12-05T15:40:26.040Z,19.80
2022-12-05T15:42:57.436Z,24.73
2022-12-05T15:45:29.908Z,23.97
2022-12-05T15:47:59.762Z,24.93
2022-12-05T15:50:44.073Z,26.07
2022-12-05T15:53:20.660Z,24.40
2022-12-05T15:55:53.400Z,22.90
2022-12-05T15:58:25.286Z,22.17
2022-12-05T16:01:04.995Z,23.23
2022-12-05T16:03:54.665Z,20.77
2022-12-05T16:06:39.680Z,20.60
2022-12-05T16:09:18.254Z,20.40
2022-12-05T16:12:31.007Z,19.67
2022-12-05T16:15:13.115Z,18.30
2022-12-05T16:17:45.366Z,21.77
2022-12-05T16:20:18.188Z,22.17
2022-12-05T16:22:49.791Z,20.00
2022-12-05T16:25:21.508Z,19.57
2022-12-05T16:28:03.163Z,18.17
2022-12-05T16:30:31.075Z,19.53
2022-12-05T16:33:15.543Z,18.37
2022-12-05T16:35:46.933Z,16.97
2022-12-05T16:38:16.347Z,18.83
2022-12-05T16:40:45.840Z,19.97
2022-12-05T16:43:32.925Z,20.03
2022-12-05T16:46:12.936Z,21.77
2022-12-05T16:48:44.773Z,21.37
2022-12-05T16:51:11.317Z,19.67
2022-12-05T16:53:39.264Z,21.33
2022-12-05T16:56:11.153Z,18.33
2022-12-05T16:58:37.912Z,16.90
2022-12-05T17:01:06.643Z,18.37
2022-12-05T17:03:35.517Z,19.33
2022-12-05T17:06:02.697Z,18.50
2022-12-05T17:08:29.388Z,18.03
2022-12-05T17:10:57.314Z,18.67
2022-12-05T17:13:23.994Z,20.00
2022-12-05T17:15:51.216Z,18.00
2022-12-05T17:18:20.690Z,17.83
2022-12-05T17:20:51.535Z,17.83
2022-12-05T17:23:18.814Z,17.77
2022-12-05T17:25:54.872Z,19.73
2022-12-05T17:28:22.112Z,21.30
2022-12-05T17:30:48.992Z,19.90
2022-12-05T17:33:18.018Z,20.20
2022-12-05T17:35:45.236Z,21.00
2022-12-05T17:38:12.000Z,20.47
2022-12-05T17:40:39.335Z,20.77
2022-12-05T17:43:05.947Z,19.47
2022-12-05T17:45:33.262Z,19.97
2022-12-05T17:48:00.146Z,21.73
2022-12-05T17:50:27.289Z,19.97
2022-12-05T17:52:56.758Z,20.57
2022-12-05T17:55:26.845Z,21.37
2022-12-05T17:57:54.074Z,20.40
2022-12-05T18:00:22.174Z,20.20
2022-12-05T18:02:49.207Z,18.77
2022-12-05T18:05:17.122Z,20.37
2022-12-05T18:07:45.287Z,20.47
2022-12-05T18:10:19.007Z,19.23
2022-12-05T18:12:46.513Z,16.53
2022-12-05T18:15:13.768Z,18.83
2022-12-05T18:17:41.042Z,17.93
2022-12-05T18:20:11.330Z,17.27
2022-12-05T18:22:37.956Z,18.40
2022-12-05T18:25:05.786Z,17.23
2022-12-05T18:27:34.255Z,16.87
2022-12-05T18:30:01.327Z,18.23
2022-12-05T18:32:28.404Z,15.30
2022-12-05T18:34:55.347Z,18.97
2022-12-05T18:37:22.881Z,18.67
2022-12-05T18:39:49.480Z,16.27
2022-12-05T18:42:16.103Z,16.37
2022-12-05T18:45:05.949Z,14.80
2022-12-05T18:47:32.476Z,17.43
2022-12-05T18:50:00.343Z,16.03
2022-12-05T18:52:26.894Z,16.57
2022-12-05T18:55:03.351Z,16.27
2022-12-05T18:57:39.977Z,17.50
2022-12-05T19:00:07.341Z,13.90
2022-12-05T19:02:35.110Z,16.73
2022-12-05T19:05:01.833Z,15.10
2022-12-05T19:07:28.394Z,15.53
2022-12-05T19:09:55.054Z,14.00
2022-12-05T19:12:21.894Z,15.30
2022-12-05T19:14:48.471Z,15.83
2022-12-05T19:17:15.019Z,16.07
2022-12-05T19:19:41.642Z,15.90
2022-12-05T19:22:08.256Z,15.17
2022-12-05T19:24:36.857Z,15.63
2022-12-05T19:27:03.827Z,13.73
2022-12-05T19:29:30.438Z,14.60
2022-12-05T19:31:57.068Z,15.10
2022-12-05T19:34:25.094Z,16.87
2022-12-05T19:36:51.612Z,17.27
2022-12-05T19:39:23.814Z,17.63
2022-12-05T19:41:50.628Z,18.37
2022-12-05T19:44:17.613Z,15.90
2022-12-05T19:46:44.260Z,16.73
2022-12-05T19:49:12.728Z,17.23
2022-12-05T19:51:40.119Z,35.13
2022-12-05T19:54:08.591Z,21.33
2022-12-05T19:56:36.080Z,30.10
2022-12-05T19:59:03.791Z,20.43
2022-12-05T20:01:33.441Z,17.90
2022-12-05T20:04:05.843Z,20.20
2022-12-05T20:06:34.694Z,22.07
2022-12-05T20:09:01.435Z,19.40
2022-12-05T20:11:31.919Z,24.20
2022-12-05T20:14:00.476Z,19.60
2022-12-05T20:16:28.091Z,22.37
2022-12-05T20:19:00.249Z,20.33
2022-12-05T20:21:30.645Z,23.03
2022-12-05T20:23:58.906Z,17.20
2022-12-05T20:26:30.939Z,20.40
2022-12-05T20:28:59.013Z,21.03
2022-12-05T20:31:28.796Z,23.47
2022-12-05T20:33:56.153Z,22.47
2022-12-05T20:36:25.649Z,20.80
2022-12-05T20:38:59.605Z,23.30
2022-12-05T20:41:27.622Z,23.70
2022-12-05T20:43:58.130Z,23.43
2022-12-05T20:46:25.559Z,23.27
2022-12-05T20:48:53.181Z,23.20
2022-12-05T20:51:22.768Z,22.93
2022-12-05T20:53:49.781Z,23.63
2022-12-05T20:56:19.018Z,23.83
2022-12-05T20:58:48.184Z,23.03
2022-12-05T21:01:16.137Z,24.57
2022-12-05T21:03:45.072Z,24.63
2022-12-05T21:06:17.344Z,24.73
2022-12-05T21:08:44.636Z,19.97
2022-12-05T21:11:12.169Z,19.60
2022-12-05T21:13:39.124Z,21.73
2022-12-05T21:16:10.883Z,22.40
2022-12-05T21:18:38.328Z,20.07
2022-12-05T21:21:08.257Z,24.67
2022-12-05T21:23:34.984Z,22.17
2022-12-05T21:26:07.528Z,21.13
2022-12-05T21:28:35.321Z,25.20
2022-12-05T21:31:32.811Z,21.20
2022-12-05T21:34:02.052Z,23.47
2022-12-05T21:36:31.347Z,20.37
2022-12-05T21:38:58.167Z,24.33
2022-12-05T21:41:26.110Z,25.73
2022-12-05T21:43:55.419Z,23.93
2022-12-05T21:46:23.733Z,25.50
2022-12-05T21:48:50.341Z,23.40
2022-12-05T21:51:17.142Z,27.33
2022-12-05T21:53:43.755Z,25.83
2022-12-05T21:56:16.298Z,23.43
2022-12-05T21:58:44.338Z,24.60
2022-12-05T22:01:12.513Z,30.13
2022-12-05T22:03:39.199Z,26.90
2022-12-05T22:06:08.386Z,27.57
2022-12-05T22:08:35.852Z,25.60
2022-12-05T22:11:07.368Z,26.13
2022-12-05T22:13:34.103Z,27.20
2022-12-05T22:16:02.040Z,28.20
2022-12-05T22:18:28.962Z,24.23
2022-12-05T22:21:04.108Z,21.33
2022-12-05T22:23:32.521Z,27.13
2022-12-05T22:26:00.032Z,29.37
2022-12-05T22:28:27.883Z,27.47
2022-12-05T22:30:56.104Z,24.97
2022-12-05T22:33:23.631Z,24.50
2022-12-05T22:35:56.676Z,28.33
2022-12-05T22:38:29.093Z,27.17
2022-12-05T22:40:57.748Z,28.17
2022-12-05T22:43:25.251Z,27.50
2022-12-05T22:45:51.972Z,29.70
2022-12-05T22:48:18.685Z,31.10
2022-12-05T22:50:54.864Z,32.27
2022-12-05T22:53:23.127Z,26.87
2022-12-05T22:55:50.695Z,33.57
2022-12-05T22:58:18.076Z,31.07
2022-12-05T23:00:46.101Z,28.20
2022-12-05T23:03:13.096Z,28.50
2022-12-05T23:05:43.445Z,27.63
2022-12-05T23:08:11.347Z,33.63
2022-12-05T23:10:39.324Z,26.50
2022-12-05T23:13:09.181Z,30.70
2022-12-05T23:15:38.895Z,30.40
2022-12-05T23:18:05.533Z,29.10
2022-12-05T23:20:32.900Z,30.17
2022-12-05T23:22:59.445Z,38.87
2022-12-05T23:25:26.017Z,36.87
2022-12-05T23:27:52.787Z,31.00
2022-12-05T23:30:19.449Z,34.60
2022-12-05T23:32:46.016Z,30.20
2022-12-05T23:35:12.571Z,37.83
2022-12-05T23:37:39.329Z,33.40
2022-12-05T23:40:06.557Z,34.97
2022-12-05T23:42:33.107Z,40.00
2022-12-05T23:44:59.738Z,32.37
2022-12-05T23:47:26.344Z,34.30
2022-12-05T23:49:52.901Z,37.07
2022-12-05T23:52:19.471Z,34.87
2022-12-05T23:54:46.070Z,39.57
2022-12-05T23:57:17.369Z,43.93
2022-12-05T23:59:45.208Z,35.60
